Time;durP1;ratioP1;P1;durP2;ratioP2;P2;SDS_P1;SDS_P2;PMS_P1;PMS_P2;Temp;Humidity;BMP_temperature;BMP_pressure;BME280_temperature;BME280_humidity;BME280_pressure;Samples;Min_cycle;Max_cycle;Signal;HPM_P1;HPM_P2
2022/07/23 00:01:28;;;;;;;10.48;6.88;;;22.60;90.10;;;;;;5002401;28;20049;-38
2022/07/23 00:03:54;;;;;;;10.32;7.30;;;22.30;90.70;;;;;;5002265;28;20034;-39
2022/07/23 00:06:20;;;;;;;8.80;7.32;;;22.30;90.00;;;;;;5002054;28;20030;-39
2022/07/23 00:08:46;;;;;;;9.65;6.55;;;22.40;89.80;;;;;;5001513;28;20053;-39
2022/07/23 00:11:12;;;;;;;8.48;6.80;;;22.40;90.10;;;;;;5005269;28;20139;-39
2022/07/23 00:13:37;;;;;;;7.55;5.55;;;22.30;92.30;;;;;;5001695;28;20033;-38
2022/07/23 00:16:03;;;;;;;8.25;5.88;;;22.30;88.90;;;;;;5002328;28;20026;-37
2022/07/23 00:18:29;;;;;;;7.72;6.40;;;22.40;84.40;;;;;;5000002;28;20113;-37
2022/07/23 00:20:55;;;;;;;8.73;5.63;;;22.50;81.70;;;;;;5000813;28;20029;-38
2022/07/23 00:23:20;;;;;;;5.90;5.15;;;22.70;79.30;;;;;;5002018;28;20423;-39
2022/07/23 00:25:46;;;;;;;6.43;5.63;;;22.70;74.40;;;;;;5001123;28;20033;-39
2022/07/23 00:28:12;;;;;;;6.25;5.03;;;23.00;68.60;;;;;;5002032;28;20475;-39
2022/07/23 00:30:38;;;;;;;6.25;5.63;;;23.10;69.20;;;;;;5001873;28;20072;-39
2022/07/23 00:33:06;;;;;;;6.63;4.10;;;23.10;69.70;;;;;;4999877;28;20581;-39
2022/07/23 00:35:34;;;;;;;6.13;4.78;;;23.20;61.70;;;;;;5002732;28;22262;-37
2022/07/23 00:38:00;;;;;;;6.22;4.90;;;23.20;59.60;;;;;;5001961;28;20042;-38
2022/07/23 00:40:27;;;;;;;9.00;4.32;;;23.30;58.50;;;;;;5001483;28;20278;-38
2022/07/23 00:42:53;;;;;;;6.22;4.80;;;23.30;60.00;;;;;;5001134;28;20033;-38
2022/07/23 00:45:19;;;;;;;5.88;4.07;;;23.20;63.30;;;;;;4999084;28;20625;-39
2022/07/23 00:47:45;;;;;;;4.75;4.07;;;22.90;67.40;;;;;;5002714;28;20022;-36
2022/07/23 00:50:11;;;;;;;4.57;4.10;;;22.70;69.50;;;;;;5004665;28;20018;-39
2022/07/23 00:52:38;;;;;;;4.75;4.13;;;22.30;77.50;;;;;;5006238;28;20104;-39
2022/07/23 00:55:05;;;;;;;4.63;3.70;;;21.70;89.60;;;;;;5004071;28;20048;-39
2022/07/23 00:57:31;;;;;;;7.30;4.83;;;21.20;93.10;;;;;;5000401;28;20077;-39
2022/07/23 00:59:57;;;;;;;6.80;4.50;;;21.10;95.10;;;;;;5001058;28;20284;-39
2022/07/23 01:02:24;;;;;;;6.28;5.43;;;20.90;98.70;;;;;;5000482;28;20084;-36
2022/07/23 01:04:50;;;;;;;6.38;4.93;;;20.50;99.90;;;;;;5000094;28;20088;-37
2022/07/23 01:07:16;;;;;;;5.82;4.72;;;20.50;99.90;;;;;;5000730;28;20118;-37
2022/07/23 01:09:44;;;;;;;7.38;5.43;;;20.60;99.90;;;;;;5000252;28;20026;-40
2022/07/23 01:12:09;;;;;;;5.72;5.03;;;20.70;99.90;;;;;;5001924;28;20395;-38
2022/07/23 01:14:35;;;;;;;7.22;5.28;;;20.70;99.90;;;;;;4998838;28;20060;-40
2022/07/23 01:17:00;;;;;;;6.85;5.40;;;20.70;99.90;;;;;;5000287;28;20530;-38
2022/07/23 01:19:26;;;;;;;7.30;5.68;;;20.80;99.90;;;;;;4999004;28;20052;-39
2022/07/23 01:21:53;;;;;;;8.35;5.88;;;20.60;99.90;;;;;;4999713;28;20488;-38
2022/07/23 01:24:19;;;;;;;6.32;5.53;;;20.50;99.90;;;;;;5000458;28;20058;-39
2022/07/23 01:26:46;;;;;;;7.07;5.50;;;20.20;99.90;;;;;;4999866;28;20113;-39
2022/07/23 01:29:12;;;;;;;8.45;6.55;;;20.40;99.90;;;;;;5000282;28;20026;-39
2022/07/23 01:31:38;;;;;;;8.18;5.65;;;20.50;99.90;;;;;;4999996;28;20041;-39
2022/07/23 01:34:04;;;;;;;7.68;5.60;;;20.30;99.90;;;;;;5001635;28;20474;-38
2022/07/23 01:36:30;;;;;;;8.88;6.03;;;20.30;99.90;;;;;;4999224;28;20038;-36
2022/07/23 01:38:55;;;;;;;8.02;6.22;;;20.40;99.90;;;;;;4998726;28;20395;-38
2022/07/23 01:41:21;;;;;;;10.10;6.35;;;20.30;99.90;;;;;;5002186;28;20026;-39
2022/07/23 01:43:47;;;;;;;7.35;6.07;;;20.20;99.90;;;;;;5001028;28;20046;-37
2022/07/23 01:46:12;;;;;;;7.35;6.22;;;20.20;99.90;;;;;;5000040;28;20037;-38
2022/07/23 01:48:38;;;;;;;7.38;5.47;;;20.20;99.90;;;;;;4999271;28;20632;-39
2022/07/23 01:51:04;;;;;;;8.02;6.55;;;20.00;99.90;;;;;;5001702;28;20045;-39
2022/07/23 01:53:31;;;;;;;8.63;6.25;;;20.00;99.90;;;;;;4998274;28;20784;-38
2022/07/23 01:55:57;;;;;;;7.63;6.07;;;20.10;99.90;;;;;;4998068;28;20034;-37
2022/07/23 01:58:24;;;;;;;10.40;6.43;;;20.20;99.90;;;;;;4998930;28;20042;-35
2022/07/23 02:00:49;;;;;;;10.85;6.57;;;20.30;99.90;;;;;;4997819;28;20049;-39
2022/07/23 02:03:15;;;;;;;9.63;6.10;;;20.20;99.90;;;;;;4997769;28;20049;-37
2022/07/23 02:05:40;;;;;;;9.02;5.85;;;20.30;99.90;;;;;;4996572;28;20117;-37
2022/07/23 02:08:06;;;;;;;8.13;6.18;;;20.30;99.90;;;;;;4999879;28;20411;-39
2022/07/23 02:10:32;;;;;;;8.00;5.80;;;20.10;99.90;;;;;;5000940;28;20036;-39
2022/07/23 02:12:57;;;;;;;8.60;6.35;;;19.90;99.90;;;;;;5001272;28;20029;-39
2022/07/23 02:15:23;;;;;;;9.52;6.95;;;20.00;99.90;;;;;;5000880;28;20034;-39
2022/07/23 02:17:49;;;;;;;11.30;6.90;;;20.10;99.90;;;;;;5003003;28;20029;-38
2022/07/23 02:20:14;;;;;;;8.07;5.57;;;20.00;99.90;;;;;;5002723;28;20033;-37
2022/07/23 02:22:40;;;;;;;10.10;6.72;;;20.00;99.90;;;;;;5001145;28;20034;-38
2022/07/23 02:25:07;;;;;;;11.43;6.80;;;19.80;99.90;;;;;;5003818;28;20065;-36
2022/07/23 02:27:33;;;;;;;10.80;7.70;;;19.40;99.90;;;;;;5003464;28;20129;-39
2022/07/23 02:29:59;;;;;;;10.32;7.00;;;19.40;99.90;;;;;;5004193;28;20486;-39
2022/07/23 02:32:25;;;;;;;7.82;6.43;;;19.50;99.90;;;;;;5001025;28;20113;-39
2022/07/23 02:34:51;;;;;;;9.32;6.82;;;19.50;99.90;;;;;;5002736;28;20100;-39
2022/07/23 02:37:16;;;;;;;9.57;7.22;;;19.70;99.90;;;;;;5001840;28;20029;-39
2022/07/23 02:39:42;;;;;;;11.30;7.22;;;19.60;99.90;;;;;;5002372;28;20057;-38
2022/07/23 02:42:08;;;;;;;9.63;6.80;;;19.40;99.90;;;;;;5004050;28;20029;-39
2022/07/23 02:44:33;;;;;;;8.98;6.15;;;19.30;99.90;;;;;;5003402;28;20633;-39
2022/07/23 02:46:59;;;;;;;9.35;6.70;;;19.30;99.90;;;;;;5003079;28;20581;-36
2022/07/23 02:49:25;;;;;;;9.30;7.30;;;19.50;99.90;;;;;;5003888;28;20057;-38
2022/07/23 02:51:50;;;;;;;9.05;6.85;;;19.50;99.90;;;;;;5001707;28;20030;-39
2022/07/23 02:54:16;;;;;;;8.52;7.05;;;19.60;99.90;;;;;;5003488;28;20068;-36
2022/07/23 02:56:42;;;;;;;9.90;6.45;;;19.70;99.90;;;;;;4999980;28;20026;-39
2022/07/23 02:59:08;;;;;;;9.43;6.90;;;19.50;99.90;;;;;;5002536;28;20061;-37
2022/07/23 03:01:34;;;;;;;10.32;6.72;;;19.60;99.90;;;;;;5004630;28;20049;-39
2022/07/23 03:03:59;;;;;;;8.38;6.47;;;19.80;99.90;;;;;;5003391;28;20022;-39
2022/07/23 03:06:25;;;;;;;10.38;6.95;;;19.80;99.90;;;;;;5000785;28;20108;-38
2022/07/23 03:08:51;;;;;;;10.20;6.68;;;20.00;99.90;;;;;;5000769;28;20068;-39
2022/07/23 03:11:17;;;;;;;8.20;6.38;;;19.90;99.90;;;;;;5002955;28;20481;-38
2022/07/23 03:13:43;;;;;;;7.90;6.20;;;19.60;99.90;;;;;;5002291;28;20036;-39
2022/07/23 03:16:09;;;;;;;9.35;6.90;;;19.30;99.90;;;;;;5001768;28;20120;-36
2022/07/23 03:18:35;;;;;;;10.65;6.78;;;19.40;99.90;;;;;;5002640;28;21508;-38
2022/07/23 03:21:01;;;;;;;11.57;6.43;;;19.40;99.90;;;;;;5001386;28;20038;-38
2022/07/23 03:23:26;;;;;;;7.72;6.20;;;19.40;99.90;;;;;;5003311;28;20045;-39
2022/07/23 03:25:52;;;;;;;7.35;6.18;;;19.40;99.90;;;;;;5002892;28;20036;-37
2022/07/23 03:28:18;;;;;;;9.63;6.20;;;19.40;99.90;;;;;;5002516;28;20143;-39
2022/07/23 03:30:46;;;;;;;7.28;5.88;;;19.40;99.90;;;;;;5002281;28;20438;-40
2022/07/23 03:33:16;;;;;;;10.95;5.70;;;19.40;99.90;;;;;;5002516;28;20034;-39
2022/07/23 03:35:42;;;;;;;10.02;5.60;;;19.40;99.90;;;;;;5001660;28;20108;-39
2022/07/23 03:38:08;;;;;;;8.15;5.15;;;19.50;99.90;;;;;;5002243;28;20029;-37
2022/07/23 03:40:34;;;;;;;7.13;5.65;;;19.60;99.90;;;;;;5002365;28;20038;-39
2022/07/23 03:42:59;;;;;;;7.35;5.93;;;19.60;99.90;;;;;;5001787;28;20036;-39
2022/07/23 03:45:25;;;;;;;8.15;6.15;;;19.60;99.90;;;;;;5004275;28;20037;-38
2022/07/23 03:47:50;;;;;;;6.85;5.82;;;19.60;99.90;;;;;;5001233;28;20026;-39
2022/07/23 03:50:16;;;;;;;7.28;5.57;;;19.40;99.90;;;;;;5003614;28;20112;-37
2022/07/23 03:52:42;;;;;;;7.82;5.20;;;19.60;99.90;;;;;;5002835;28;20049;-39
2022/07/23 03:55:08;;;;;;;7.32;5.55;;;19.60;99.90;;;;;;5001350;28;20038;-39
2022/07/23 03:57:33;;;;;;;7.43;5.78;;;19.60;99.90;;;;;;5003027;28;20121;-36
2022/07/23 03:59:59;;;;;;;7.18;5.50;;;19.70;99.90;;;;;;5001177;28;20368;-39
2022/07/23 04:02:24;;;;;;;7.45;5.97;;;19.70;99.90;;;;;;5000890;28;20076;-39
2022/07/23 04:04:50;;;;;;;8.20;6.28;;;19.60;99.90;;;;;;5000081;28;20049;-39
2022/07/23 04:07:17;;;;;;;6.65;5.53;;;19.50;99.90;;;;;;5001037;28;20176;-36
2022/07/23 04:09:43;;;;;;;6.45;5.85;;;19.30;99.90;;;;;;5002233;28;20105;-40
2022/07/23 04:12:09;;;;;;;7.95;6.22;;;19.20;99.90;;;;;;5001952;28;20064;-39
2022/07/23 04:14:35;;;;;;;7.95;6.40;;;19.20;99.90;;;;;;5001713;28;20100;-40
2022/07/23 04:17:01;;;;;;;7.88;5.82;;;19.30;99.90;;;;;;5001622;28;20041;-40
2022/07/23 04:19:28;;;;;;;6.78;5.72;;;19.00;99.90;;;;;;4999436;28;20542;-40
2022/07/23 04:21:53;;;;;;;9.25;5.80;;;19.10;99.90;;;;;;5000965;28;20033;-39
2022/07/23 04:24:19;;;;;;;8.30;6.32;;;19.20;99.90;;;;;;5002501;28;20036;-39
2022/07/23 04:26:45;;;;;;;6.90;5.40;;;19.20;99.90;;;;;;5002204;28;20040;-37
2022/07/23 04:29:11;;;;;;;6.68;5.47;;;19.20;99.90;;;;;;5000820;28;20076;-37
2022/07/23 04:31:37;;;;;;;7.28;6.10;;;19.40;99.90;;;;;;4998977;28;20038;-38
2022/07/23 04:34:02;;;;;;;6.63;5.38;;;19.10;99.90;;;;;;5000748;28;20061;-39
2022/07/23 04:36:28;;;;;;;7.15;5.53;;;19.00;99.90;;;;;;5005919;28;20029;-39
2022/07/23 04:38:54;;;;;;;7.32;5.80;;;19.10;99.90;;;;;;5005258;28;20029;-38
2022/07/23 04:41:20;;;;;;;8.00;5.85;;;19.30;99.90;;;;;;5005168;28;20025;-36
2022/07/23 04:43:46;;;;;;;6.82;6.00;;;19.40;99.90;;;;;;5009046;28;20589;-39
2022/07/23 04:46:12;;;;;;;6.68;6.00;;;19.20;99.90;;;;;;5008471;28;20022;-39
2022/07/23 04:48:37;;;;;;;8.32;6.38;;;19.20;99.90;;;;;;5005195;28;20084;-39
2022/07/23 04:51:04;;;;;;;7.85;5.88;;;19.20;99.90;;;;;;5021799;28;20038;-39
2022/07/23 04:53:29;;;;;;;9.25;6.57;;;19.30;99.90;;;;;;5007363;28;21079;-40
2022/07/23 04:55:55;;;;;;;9.40;6.85;;;19.30;99.90;;;;;;5002619;28;20025;-36
2022/07/23 04:58:21;;;;;;;9.88;7.00;;;19.00;99.90;;;;;;5005855;28;20034;-38
2022/07/23 05:00:47;;;;;;;8.27;6.72;;;18.80;99.90;;;;;;5000343;28;20555;-39
2022/07/23 05:03:13;;;;;;;10.48;7.05;;;18.80;99.90;;;;;;5005367;28;20026;-39
2022/07/23 05:05:38;;;;;;;7.80;6.18;;;18.90;99.90;;;;;;5004291;28;20030;-38
2022/07/23 05:08:04;;;;;;;7.60;6.28;;;18.80;99.90;;;;;;5001954;28;20105;-38
2022/07/23 05:10:30;;;;;;;8.63;6.32;;;19.00;99.90;;;;;;5003849;28;20033;-38
2022/07/23 05:12:56;;;;;;;8.70;6.10;;;19.20;99.90;;;;;;5005425;28;20101;-38
2022/07/23 05:15:21;;;;;;;9.40;5.53;;;19.30;99.90;;;;;;5005495;28;20038;-39
2022/07/23 05:17:47;;;;;;;7.85;5.90;;;19.40;99.90;;;;;;5006579;28;20030;-37
2022/07/23 05:20:13;;;;;;;7.25;6.40;;;19.60;99.90;;;;;;5006943;28;20028;-40
2022/07/23 05:22:39;;;;;;;7.82;5.45;;;19.60;99.90;;;;;;5005070;28;20038;-40
2022/07/23 05:25:06;;;;;;;5.97;5.35;;;19.60;99.90;;;;;;5007062;28;20514;-38
2022/07/23 05:27:31;;;;;;;8.38;6.07;;;19.70;99.90;;;;;;5004947;28;20025;-39
2022/07/23 05:29:57;;;;;;;6.38;5.50;;;19.80;99.90;;;;;;5007573;28;20422;-40
2022/07/23 05:32:23;;;;;;;6.90;5.88;;;19.80;99.90;;;;;;5005995;28;20057;-38
2022/07/23 05:34:49;;;;;;;8.57;5.65;;;19.90;99.90;;;;;;5006397;28;20398;-39
2022/07/23 05:37:15;;;;;;;8.30;5.57;;;19.90;99.90;;;;;;5005350;28;20040;-36
2022/07/23 05:39:41;;;;;;;8.15;5.95;;;19.80;99.90;;;;;;5002863;28;20491;-39
2022/07/23 05:42:06;;;;;;;6.68;5.90;;;19.90;99.90;;;;;;5004882;28;20108;-38
2022/07/23 05:44:32;;;;;;;7.50;6.13;;;19.60;99.90;;;;;;5005537;28;20117;-37
2022/07/23 05:46:58;;;;;;;9.93;6.00;;;19.60;99.90;;;;;;5005080;28;20045;-38
2022/07/23 05:49:23;;;;;;;8.50;5.97;;;19.70;99.90;;;;;;5003329;28;20025;-38
2022/07/23 05:51:49;;;;;;;7.45;5.90;;;19.70;99.90;;;;;;5003451;28;20104;-39
2022/07/23 05:54:14;;;;;;;7.32;5.55;;;19.80;99.90;;;;;;5005512;28;20518;-37
2022/07/23 05:56:40;;;;;;;7.65;5.93;;;19.80;99.90;;;;;;5006756;28;20165;-37
2022/07/23 05:59:06;;;;;;;10.52;5.88;;;19.70;99.90;;;;;;5002342;28;20045;-39
2022/07/23 06:01:31;;;;;;;10.30;6.35;;;19.60;99.90;;;;;;5004574;28;20368;-39
2022/07/23 06:03:57;;;;;;;7.95;6.25;;;19.50;99.90;;;;;;5005658;28;20022;-39
2022/07/23 06:06:23;;;;;;;8.20;6.05;;;19.40;99.90;;;;;;5003551;28;20072;-38
2022/07/23 06:08:48;;;;;;;8.77;5.68;;;19.40;99.90;;;;;;5000907;28;20022;-39
2022/07/23 06:11:14;;;;;;;9.07;5.80;;;19.60;99.90;;;;;;5002703;28;20034;-39
2022/07/23 06:13:40;;;;;;;8.98;6.03;;;19.60;99.90;;;;;;5005650;28;20124;-37
2022/07/23 06:16:05;;;;;;;7.40;5.78;;;19.60;99.90;;;;;;5006380;28;20466;-37
2022/07/23 06:18:31;;;;;;;6.53;5.50;;;19.60;99.90;;;;;;5005433;28;20109;-39
2022/07/23 06:20:57;;;;;;;9.13;6.07;;;19.40;99.90;;;;;;5003808;28;20025;-39
2022/07/23 06:23:22;;;;;;;8.55;6.00;;;19.50;99.90;;;;;;5007243;28;20033;-38
2022/07/23 06:25:48;;;;;;;7.90;6.13;;;19.50;99.90;;;;;;5004805;28;20026;-39
2022/07/23 06:28:13;;;;;;;8.63;6.30;;;19.40;99.90;;;;;;5002727;28;20045;-38
2022/07/23 06:30:39;;;;;;;7.78;6.55;;;19.40;99.90;;;;;;5004916;28;20085;-38
2022/07/23 06:33:05;;;;;;;8.23;6.47;;;19.40;99.90;;;;;;5006150;28;20166;-38
2022/07/23 06:35:30;;;;;;;9.65;6.35;;;19.40;99.90;;;;;;5007398;28;20034;-39
2022/07/23 06:37:56;;;;;;;8.15;6.18;;;19.40;99.90;;;;;;5005602;28;20049;-39
2022/07/23 06:40:22;;;;;;;7.72;6.30;;;19.40;99.90;;;;;;4999944;28;20498;-38
2022/07/23 06:42:47;;;;;;;9.23;6.65;;;19.50;99.90;;;;;;5002510;28;20033;-39
2022/07/23 06:45:14;;;;;;;7.13;6.13;;;19.60;99.90;;;;;;5004952;28;20034;-39
2022/07/23 06:47:40;;;;;;;11.35;6.80;;;19.60;99.90;;;;;;4999941;28;20030;-39
2022/07/23 06:50:06;;;;;;;8.32;6.70;;;19.60;99.90;;;;;;5002176;28;20018;-36
2022/07/23 06:52:32;;;;;;;10.32;6.03;;;19.70;99.90;;;;;;5004223;28;20107;-39
2022/07/23 06:54:57;;;;;;;8.48;6.35;;;19.70;99.90;;;;;;5003785;28;20041;-39
2022/07/23 06:57:25;;;;;;;8.23;6.70;;;19.80;99.90;;;;;;5003345;28;20037;-35
2022/07/23 06:59:51;;;;;;;9.98;6.60;;;19.70;99.90;;;;;;5004708;28;20064;-38
2022/07/23 07:02:16;;;;;;;8.52;7.20;;;19.70;99.90;;;;;;5006970;28;20103;-38
2022/07/23 07:04:42;;;;;;;8.50;6.38;;;19.60;99.90;;;;;;5008815;28;20073;-39
2022/07/23 07:07:08;;;;;;;9.93;7.38;;;19.60;99.90;;;;;;5009323;28;20030;-36
2022/07/23 07:09:33;;;;;;;9.68;7.00;;;19.60;99.90;;;;;;5010226;28;20091;-39
2022/07/23 07:11:59;;;;;;;8.30;6.60;;;19.40;99.90;;;;;;5008390;28;20041;-37
2022/07/23 07:14:25;;;;;;;10.15;7.15;;;19.50;99.90;;;;;;5011808;28;20049;-38
2022/07/23 07:16:50;;;;;;;7.75;6.68;;;19.60;99.90;;;;;;5009848;28;20033;-35
2022/07/23 07:19:16;;;;;;;8.40;6.80;;;19.50;99.90;;;;;;5012329;28;20037;-39
2022/07/23 07:21:41;;;;;;;11.00;7.30;;;19.60;99.90;;;;;;5011751;28;20030;-37
2022/07/23 07:24:07;;;;;;;7.45;6.55;;;19.60;99.90;;;;;;5009303;28;20071;-39
2022/07/23 07:26:33;;;;;;;7.45;6.22;;;19.60;99.90;;;;;;5010000;28;20026;-38
2022/07/23 07:28:58;;;;;;;9.65;7.07;;;19.80;99.90;;;;;;5001289;28;20026;-37
2022/07/23 07:31:24;;;;;;;7.75;6.15;;;19.80;99.90;;;;;;4999046;28;20045;-38
2022/07/23 07:33:50;;;;;;;11.23;7.07;;;20.00;99.90;;;;;;5007910;28;20037;-38
2022/07/23 07:36:15;;;;;;;8.73;6.35;;;20.00;99.90;;;;;;5003041;28;20026;-39
2022/07/23 07:38:41;;;;;;;9.00;6.25;;;20.00;99.90;;;;;;5005194;28;20516;-37
2022/07/23 07:41:07;;;;;;;9.27;6.97;;;20.00;99.90;;;;;;5006336;28;20045;-39
2022/07/23 07:43:33;;;;;;;7.10;6.40;;;20.00;99.90;;;;;;5010716;28;20116;-38
2022/07/23 07:45:59;;;;;;;8.77;6.90;;;19.90;99.90;;;;;;5010620;28;20493;-36
2022/07/23 07:48:24;;;;;;;9.00;7.13;;;19.80;99.90;;;;;;5007611;28;21856;-39
2022/07/23 07:50:50;;;;;;;8.43;6.68;;;19.90;99.90;;;;;;5001821;28;20084;-39
2022/07/23 07:53:15;;;;;;;11.68;6.70;;;20.10;99.90;;;;;;5005791;28;20049;-39
2022/07/23 07:55:41;;;;;;;11.05;8.05;;;20.00;99.90;;;;;;5007778;28;20037;-39
2022/07/23 07:58:07;;;;;;;8.32;6.22;;;20.10;99.90;;;;;;5010599;28;20022;-39
2022/07/23 08:00:32;;;;;;;10.23;6.72;;;20.10;99.90;;;;;;5007726;28;20026;-38
2022/07/23 08:02:59;;;;;;;10.48;6.53;;;20.30;99.90;;;;;;5002738;28;20032;-39
2022/07/23 08:05:26;;;;;;;8.32;6.05;;;20.20;99.90;;;;;;5008488;28;20034;-36
2022/07/23 08:07:52;;;;;;;8.82;6.32;;;20.20;99.90;;;;;;5009128;28;20439;-40
2022/07/23 08:10:18;;;;;;;7.05;5.80;;;20.40;99.90;;;;;;5004349;28;20030;-36
2022/07/23 08:12:49;;;;;;;8.00;6.97;;;20.40;99.90;;;;;;5004251;28;20033;-39
2022/07/23 08:15:18;;;;;;;6.32;5.68;;;20.60;99.90;;;;;;5004854;28;20541;-38
2022/07/23 08:17:45;;;;;;;10.00;6.38;;;20.80;99.90;;;;;;5007855;28;20502;-39
2022/07/23 08:20:12;;;;;;;8.80;6.25;;;21.00;99.90;;;;;;5003878;28;20103;-37
2022/07/23 08:22:52;;;;;;;7.45;6.18;;;21.10;99.90;;;;;;5009492;28;20044;-39
2022/07/23 08:25:26;;;;;;;8.00;6.28;;;21.50;99.90;;;;;;5009578;28;20388;-38
2022/07/23 08:27:52;;;;;;;7.57;6.32;;;22.10;99.90;;;;;;5003357;28;20045;-37
2022/07/23 08:30:18;;;;;;;6.47;5.65;;;22.40;99.90;;;;;;4998894;28;20026;-38
2022/07/23 08:32:54;;;;;;;6.97;5.82;;;22.70;99.90;;;;;;5009675;28;20030;-39
2022/07/23 08:35:40;;;;;;;8.07;5.93;;;22.90;99.90;;;;;;5005620;28;20506;-39
2022/07/23 08:38:08;;;;;;;6.75;5.70;;;22.40;99.90;;;;;;5010288;28;20053;-38
2022/07/23 08:40:42;;;;;;;6.00;5.40;;;22.60;99.90;;;;;;5007254;28;20049;-39
2022/07/23 08:43:11;;;;;;;6.57;5.38;;;22.90;99.90;;;;;;5004071;28;20057;-38
2022/07/23 08:45:41;;;;;;;7.63;5.07;;;23.10;99.90;;;;;;5006564;28;20407;-38
2022/07/23 08:48:10;;;;;;;7.00;4.95;;;23.00;99.90;;;;;;5002730;28;20040;-37
2022/07/23 08:50:37;;;;;;;8.25;5.70;;;23.00;99.90;;;;;;5000817;28;20026;-39
2022/07/23 08:53:06;;;;;;;5.10;4.38;;;23.20;99.90;;;;;;5000926;28;20133;-39
2022/07/23 08:55:31;;;;;;;6.97;5.32;;;23.50;99.90;;;;;;5004778;28;20026;-36
2022/07/23 08:57:57;;;;;;;6.80;5.10;;;23.90;99.90;;;;;;5007333;28;20030;-39
2022/07/23 09:00:23;;;;;;;8.40;5.05;;;24.00;97.90;;;;;;5002382;28;20962;-38
2022/07/23 09:02:50;;;;;;;6.57;5.38;;;23.90;98.30;;;;;;5004416;28;20983;-36
2022/07/23 09:05:16;;;;;;;5.72;4.57;;;24.20;97.30;;;;;;5008414;28;20022;-37
2022/07/23 09:08:03;;;;;;;6.28;5.10;;;24.20;96.50;;;;;;5005439;28;20018;-38
2022/07/23 09:10:29;;;;;;;5.88;4.82;;;24.40;95.90;;;;;;5003918;28;20041;-37
2022/07/23 09:12:55;;;;;;;5.78;5.18;;;24.70;97.20;;;;;;5004231;28;20033;-39
2022/07/23 09:15:20;;;;;;;6.43;5.07;;;24.60;96.80;;;;;;5004462;28;20033;-39
2022/07/23 09:17:47;;;;;;;5.38;4.82;;;24.70;95.90;;;;;;4999747;28;20042;-39
2022/07/23 09:20:15;;;;;;;5.80;4.50;;;24.70;97.10;;;;;;5002178;28;20037;-37
2022/07/23 09:22:51;;;;;;;8.80;5.43;;;25.10;97.90;;;;;;5001419;28;20494;-38
2022/07/23 09:25:18;;;;;;;7.45;5.20;;;25.40;94.30;;;;;;5003072;28;20561;-38
2022/07/23 09:27:59;;;;;;;5.30;4.80;;;25.70;94.90;;;;;;5003577;28;20037;-39
2022/07/23 09:30:28;;;;;;;5.97;5.30;;;25.90;95.50;;;;;;5002323;28;20304;-38
2022/07/23 09:33:13;;;;;;;5.25;4.75;;;25.70;92.70;;;;;;5002647;28;20104;-36
2022/07/23 09:35:47;;;;;;;7.07;4.85;;;25.60;91.30;;;;;;5002658;28;20381;-37
2022/07/23 09:38:13;;;;;;;5.57;4.90;;;25.60;93.20;;;;;;5001770;28;20037;-37
2022/07/23 09:40:39;;;;;;;5.25;4.60;;;25.70;91.30;;;;;;5004565;28;20033;-38
2022/07/23 09:43:04;;;;;;;6.93;5.18;;;25.40;91.10;;;;;;5005905;28;20038;-39
2022/07/23 09:45:30;;;;;;;7.90;5.82;;;25.40;90.10;;;;;;5001945;28;20064;-35
2022/07/23 09:48:16;;;;;;;5.65;4.25;;;25.30;91.80;;;;;;5000965;28;20073;-39
2022/07/23 09:50:43;;;;;;;6.40;5.80;;;25.20;91.10;;;;;;5005397;28;20026;-36
2022/07/23 09:53:23;;;;;;;6.30;5.20;;;25.20;93.40;;;;;;5007261;28;20046;-39
2022/07/23 09:55:49;;;;;;;6.20;5.55;;;25.10;91.60;;;;;;5003696;28;20025;-36
2022/07/23 09:58:16;;;;;;;5.43;4.82;;;24.90;93.00;;;;;;5007029;28;20053;-39
2022/07/23 10:00:44;;;;;;;5.97;4.30;;;25.20;92.10;;;;;;5001871;28;20048;-36
2022/07/23 10:03:10;;;;;;;;;;;25.40;90.30;;;;;;5005749;28;20467;-37
2022/07/23 10:05:37;;;;;;;5.00;4.50;;;25.70;88.50;;;;;;5003903;28;20256;-38
2022/07/23 10:08:03;;;;;;;6.53;4.70;;;25.60;84.00;;;;;;5002360;28;20022;-39
2022/07/23 10:10:30;;;;;;;6.03;4.95;;;25.70;83.10;;;;;;4999682;28;20026;-37
2022/07/23 10:15:48;;;;;;;6.13;5.43;;;25.60;82.60;;;;;;4984796;28;20041;-37
2022/07/23 10:18:14;;;;;;;3.80;3.50;;;25.60;84.10;;;;;;5004156;28;20407;-37
2022/07/23 10:20:40;;;;;;;5.82;5.22;;;25.50;84.00;;;;;;5006951;28;20120;-38
2022/07/23 10:23:09;;;;;;;6.57;5.57;;;25.70;83.00;;;;;;5005022;28;20410;-37
2022/07/23 10:25:40;;;;;;;6.13;5.53;;;25.70;85.00;;;;;;5001087;28;20800;-37
2022/07/23 10:28:32;;;;;;;7.20;5.60;;;26.10;85.90;;;;;;5001901;28;20053;-39
2022/07/23 10:31:20;;;;;;;5.25;4.68;;;26.60;87.20;;;;;;5000288;28;20049;-37
2022/07/23 10:33:58;;;;;;;5.50;4.47;;;26.70;76.50;;;;;;5000886;28;20036;-39
2022/07/23 10:37:01;;;;;;;6.07;4.57;;;26.20;74.70;;;;;;5000829;28;20041;-38
2022/07/23 10:39:33;;;;;;;6.32;4.95;;;26.30;80.10;;;;;;5007597;28;20029;-39
2022/07/23 10:42:12;;;;;;;7.50;5.43;;;26.30;74.90;;;;;;5008843;28;20072;-38
2022/07/23 10:44:42;;;;;;;7.38;5.30;;;26.30;74.00;;;;;;5005061;28;20026;-36
2022/07/23 10:49:50;;;;;;;6.47;5.43;;;26.80;80.40;;;;;;5010921;28;20022;-39
2022/07/23 10:52:22;;;;;;;5.40;4.82;;;26.80;75.60;;;;;;5005158;28;20044;-39
2022/07/23 10:55:15;;;;;;;5.60;5.00;;;26.60;74.40;;;;;;5005783;28;20061;-39
2022/07/23 10:57:51;;;;;;;5.97;5.38;;;26.40;73.60;;;;;;5003330;28;20046;-39
2022/07/23 11:00:22;;;;;;;7.80;5.07;;;26.10;77.30;;;;;;5006140;28;20034;-35
2022/07/23 11:02:50;;;;;;;5.88;5.28;;;25.90;79.50;;;;;;5005345;28;20037;-37
2022/07/23 11:05:21;;;;;;;5.78;5.18;;;26.10;78.80;;;;;;5001110;28;20838;-37
2022/07/23 11:08:05;;;;;;;5.43;4.80;;;26.40;83.20;;;;;;5017604;28;20037;-39
2022/07/23 11:10:38;;;;;;;4.88;4.38;;;26.60;80.80;;;;;;5000432;28;20134;-39
2022/07/23 11:13:22;;;;;;;5.90;4.53;;;26.60;72.00;;;;;;5002004;28;20565;-39
2022/07/23 11:16:04;;;;;;;6.95;5.30;;;26.20;74.60;;;;;;5004661;28;20128;-38
2022/07/23 11:18:47;;;;;;;7.85;5.75;;;26.20;82.50;;;;;;5002995;28;20041;-38
2022/07/23 11:21:31;;;;;;;6.70;6.03;;;26.40;81.20;;;;;;5003680;28;20377;-39
2022/07/23 11:23:56;;;;;;;6.18;5.60;;;26.50;77.00;;;;;;5005167;28;20093;-39
2022/07/23 11:26:44;;;;;;;6.00;5.35;;;26.30;73.40;;;;;;5003470;28;20538;-39
2022/07/23 11:29:28;;;;;;;;;;;26.10;82.00;;;;;;5002659;28;20026;-38
2022/07/23 11:31:56;;;;;;;7.13;5.43;;;26.10;76.70;;;;;;5008793;28;19924;-37
2022/07/23 11:34:32;;;;;;;6.68;5.25;;;26.40;80.20;;;;;;5001172;28;20033;-39
2022/07/23 11:36:59;;;;;;;8.43;5.45;;;26.50;81.00;;;;;;5008827;28;20045;-36
2022/07/23 11:39:27;;;;;;;5.93;5.33;;;26.20;75.60;;;;;;5002260;28;20521;-39
2022/07/23 11:41:54;;;;;;;6.78;6.15;;;26.20;79.80;;;;;;5003482;28;20331;-40
2022/07/23 11:44:27;;;;;;;7.25;5.90;;;26.20;81.10;;;;;;5002707;28;20487;-39
2022/07/23 11:47:00;;;;;;;7.07;6.07;;;26.30;81.40;;;;;;5001421;28;20136;-39
2022/07/23 11:49:27;;;;;;;6.38;5.57;;;26.30;82.70;;;;;;5000454;28;20029;-40
2022/07/23 11:52:22;;;;;;;6.78;6.07;;;26.20;79.30;;;;;;5004231;28;20037;-37
2022/07/23 11:54:53;;;;;;;6.88;5.45;;;25.90;78.80;;;;;;5003483;28;20068;-36
2022/07/23 11:57:20;;;;;;;7.15;6.45;;;26.00;85.80;;;;;;5010725;28;20049;-38
2022/07/23 11:59:49;;;;;;;7.28;6.05;;;26.10;78.80;;;;;;5008812;28;20026;-37
2022/07/23 12:02:15;;;;;;;7.03;6.32;;;26.10;78.30;;;;;;5002822;28;20042;-39
2022/07/23 12:04:42;;;;;;;8.18;6.43;;;26.40;82.00;;;;;;5003701;28;20048;-39
2022/07/23 12:07:33;;;;;;;7.82;6.78;;;26.40;82.10;;;;;;5003485;28;20038;-39
2022/07/23 12:10:03;;;;;;;6.57;5.53;;;26.70;79.20;;;;;;5005484;28;20064;-36
2022/07/23 12:12:36;;;;;;;7.00;5.97;;;26.80;80.50;;;;;;5005018;28;20033;-39
2022/07/23 12:15:03;;;;;;;6.43;5.82;;;26.60;77.80;;;;;;5006229;28;20061;-38
2022/07/23 12:17:32;;;;;;;7.75;6.95;;;26.60;77.20;;;;;;5004081;28;20128;-37
2022/07/23 12:19:59;;;;;;;6.97;6.28;;;26.40;78.40;;;;;;5009531;28;20503;-38
2022/07/23 12:22:26;;;;;;;9.40;6.13;;;26.50;82.10;;;;;;5004467;28;20041;-40
2022/07/23 12:25:00;;;;;;;9.80;6.85;;;26.60;79.20;;;;;;5002751;28;20032;-38
2022/07/23 12:27:26;;;;;;;6.93;6.18;;;26.60;78.90;;;;;;5007884;28;20038;-39
2022/07/23 12:29:52;;;;;;;7.05;6.13;;;26.80;80.00;;;;;;5003656;28;20503;-38
2022/07/23 12:32:21;;;;;;;7.47;6.47;;;27.00;78.80;;;;;;5005054;28;20092;-39
2022/07/23 12:35:08;;;;;;;7.68;6.00;;;26.90;77.60;;;;;;5003682;28;20049;-37
2022/07/23 12:37:36;;;;;;;7.50;6.80;;;26.80;78.30;;;;;;5005185;28;20065;-40
2022/07/23 12:40:25;;;;;;;6.40;5.57;;;26.70;77.40;;;;;;5004628;28;20026;-39
2022/07/23 12:42:55;;;;;;;8.43;6.03;;;26.70;78.70;;;;;;5002414;28;20383;-39
2022/07/23 12:45:20;;;;;;;8.15;6.07;;;26.60;79.20;;;;;;5006640;28;20399;-36
2022/07/23 12:48:06;;;;;;;6.65;6.03;;;26.40;77.70;;;;;;5002618;28;20029;-39
2022/07/23 12:50:39;;;;;;;8.48;6.50;;;26.60;78.80;;;;;;5005115;28;20048;-39
2022/07/23 12:53:11;;;;;;;7.00;6.30;;;26.60;78.90;;;;;;5004636;28;20466;-39
2022/07/23 12:55:38;;;;;;;6.90;6.15;;;26.60;77.50;;;;;;5001650;28;20037;-39